Time;durP1;ratioP1;P1;durP2;ratioP2;P2;SDS_P1;SDS_P2;PMS_P1;PMS_P2;Temp;Humidity;BMP_temperature;BMP_pressure;BME280_temperature;BME280_humidity;BME280_pressure;Samples;Min_cycle;Max_cycle;Signal;HPM_P1;HPM_P2
2023/09/29 00:02:23;;;;;;;;;;;18.80;82.50;;;;;;5063659;28;20622;-70
2023/09/29 00:04:50;;;;;;;;;;;18.80;82.60;;;;;;5066009;28;20501;-70
2023/09/29 00:07:16;;;;;;;;;;;18.70;82.60;;;;;;5064331;28;19983;-70
2023/09/29 00:09:43;;;;;;;;;;;18.70;82.60;;;;;;5064763;28;19976;-71
2023/09/29 00:12:09;;;;;;;;;;;18.70;82.70;;;;;;5064890;28;19979;-70
2023/09/29 00:14:37;;;;;;;;;;;18.70;82.70;;;;;;5064158;28;19995;-71
2023/09/29 00:17:04;;;;;;;;;;;18.70;82.70;;;;;;5064192;28;20041;-70
2023/09/29 00:19:30;;;;;;;;;;;18.70;82.70;;;;;;5065996;28;19998;-70
2023/09/29 00:21:57;;;;;;;;;;;18.60;82.70;;;;;;5065278;28;19979;-70
2023/09/29 00:24:24;;;;;;;;;;;18.60;82.80;;;;;;5064101;28;19999;-70
2023/09/29 00:26:50;;;;;;;;;;;18.60;82.80;;;;;;5069110;28;19979;-71
2023/09/29 00:29:17;;;;;;;;;;;18.60;82.90;;;;;;5062929;28;20435;-70
2023/09/29 00:31:45;;;;;;;;;;;18.50;82.90;;;;;;5064264;28;19991;-70
2023/09/29 00:34:12;;;;;;;;;;;18.50;82.90;;;;;;5064775;28;19995;-72
2023/09/29 00:36:39;;;;;;;;;;;18.50;83.00;;;;;;5068241;28;19982;-70
2023/09/29 00:39:07;;;;;;;;;;;18.50;83.10;;;;;;5064992;28;20339;-71
2023/09/29 00:41:34;;;;;;;;;;;18.50;83.10;;;;;;5065034;28;20078;-70
2023/09/29 00:44:00;;;;;;;;;;;18.50;83.20;;;;;;5062976;28;20023;-70
2023/09/29 00:46:27;;;;;;;;;;;18.40;83.10;;;;;;5062861;28;20627;-70
2023/09/29 00:48:55;;;;;;;;;;;18.40;83.20;;;;;;5064988;28;20526;-71
2023/09/29 00:51:22;;;;;;;;;;;18.40;83.20;;;;;;5064978;28;19982;-71
2023/09/29 00:53:49;;;;;;;;;;;18.40;83.40;;;;;;5062238;28;19999;-70
2023/09/29 00:56:16;;;;;;;;;;;18.40;83.40;;;;;;5063379;28;21501;-70
2023/09/29 00:58:42;;;;;;;;;;;18.40;83.40;;;;;;5065199;28;19976;-71
2023/09/29 01:01:13;;;;;;;;;;;18.40;83.40;;;;;;5060380;28;21306;-71
2023/09/29 01:03:39;;;;;;;;;;;18.30;84.10;;;;;;5064676;28;20482;-71
2023/09/29 01:06:08;;;;;;;;;;;18.30;83.40;;;;;;5066822;28;19984;-71
2023/09/29 01:08:36;;;;;;;;;;;18.30;83.40;;;;;;5065223;28;20002;-71
2023/09/29 01:11:04;;;;;;;;;;;18.30;83.50;;;;;;5063985;28;19982;-70
2023/09/29 01:13:31;;;;;;;;;;;18.20;83.50;;;;;;5064673;28;19972;-69
2023/09/29 01:15:59;;;;;;;;;;;18.20;83.50;;;;;;5063534;28;19995;-69
2023/09/29 01:18:26;;;;;;;;;;;18.20;83.50;;;;;;5064143;28;20498;-71
2023/09/29 01:20:53;;;;;;;;;;;18.20;83.50;;;;;;5064448;28;20076;-71
2023/09/29 01:23:20;;;;;;;;;;;18.20;83.50;;;;;;5065437;28;19979;-70
2023/09/29 01:25:48;;;;;;;;;;;18.20;83.60;;;;;;5066169;28;19979;-71
2023/09/29 01:28:15;;;;;;;;;;;18.20;83.60;;;;;;5068412;28;19983;-70
2023/09/29 01:30:42;;;;;;;;;;;18.10;83.60;;;;;;5064885;28;19995;-71
2023/09/29 01:33:09;;;;;;;;;;;18.10;83.60;;;;;;5068605;28;20458;-70
2023/09/29 01:35:36;;;;;;;;;;;18.10;83.70;;;;;;5068647;28;20335;-70
2023/09/29 01:38:02;;;;;;;;;;;18.10;83.80;;;;;;5064815;28;19979;-70
2023/09/29 01:40:29;;;;;;;;;;;18.10;83.80;;;;;;5067390;28;19987;-72
2023/09/29 01:42:57;;;;;;;;;;;18.00;83.80;;;;;;5064127;28;20486;-70
2023/09/29 01:45:25;;;;;;;;;;;18.00;83.80;;;;;;5065534;28;20563;-70
2023/09/29 01:47:51;;;;;;;;;;;18.00;83.90;;;;;;5067887;28;20015;-71
2023/09/29 01:50:18;;;;;;;;;;;18.00;83.90;;;;;;5062506;28;19983;-73
2023/09/29 01:52:46;;;;;;;;;;;18.00;84.00;;;;;;5067857;28;20712;-70
2023/09/29 01:55:14;;;;;;;;;;;17.90;83.90;;;;;;5067219;28;19995;-70
2023/09/29 01:57:42;;;;;;;;;;;17.90;84.00;;;;;;5064738;28;20048;-70
2023/09/29 02:00:14;;;;;;;;;;;18.00;84.20;;;;;;5065845;28;20001;-72
2023/09/29 02:02:43;;;;;;;;;;;17.90;84.10;;;;;;5068998;28;19978;-71
2023/09/29 02:05:10;;;;;;;;;;;17.90;84.20;;;;;;5064910;28;19995;-71
2023/09/29 02:07:37;;;;;;;;;;;17.90;84.30;;;;;;5067298;28;20054;-71
2023/09/29 02:10:04;;;;;;;;;;;17.90;84.30;;;;;;5065965;28;19986;-70
2023/09/29 02:12:31;;;;;;;;;;;17.90;84.40;;;;;;5071273;28;19986;-70
2023/09/29 02:14:58;;;;;;;;;;;17.90;84.40;;;;;;5066735;28;20000;-70
2023/09/29 02:17:27;;;;;;;;;;;17.80;84.30;;;;;;5066497;28;19999;-71
2023/09/29 02:19:53;;;;;;;;;;;17.80;84.30;;;;;;5067858;28;19998;-71
2023/09/29 02:22:20;;;;;;;;;;;17.80;84.50;;;;;;5069530;28;19979;-71
2023/09/29 02:24:47;;;;;;;;;;;17.80;84.50;;;;;;5067461;28;19991;-70
2023/09/29 02:27:15;;;;;;;;;;;17.80;84.60;;;;;;5070436;28;19979;-70
2023/09/29 02:29:42;;;;;;;;;;;17.80;84.60;;;;;;5066527;28;19975;-70
2023/09/29 02:32:09;;;;;;;;;;;17.70;84.60;;;;;;5069057;28;19996;-70
2023/09/29 02:34:37;;;;;;;;;;;17.70;84.70;;;;;;5068643;28;20101;-70
2023/09/29 02:37:03;;;;;;;;;;;17.70;84.70;;;;;;5068075;28;19979;-70
2023/09/29 02:39:30;;;;;;;;;;;17.70;84.80;;;;;;5066594;28;19995;-70
2023/09/29 02:41:56;;;;;;;;;;;17.70;84.80;;;;;;5066824;28;20526;-71
2023/09/29 02:44:23;;;;;;;;;;;17.70;84.80;;;;;;5065296;28;19998;-70
2023/09/29 02:46:50;;;;;;;;;;;17.70;84.90;;;;;;5068325;28;19999;-71
2023/09/29 02:49:20;;;;;;;;;;;17.70;85.00;;;;;;5069465;28;19979;-70
2023/09/29 02:51:48;;;;;;;;;;;17.60;85.00;;;;;;5066870;28;19984;-71
2023/09/29 02:54:15;;;;;;;;;;;17.60;85.00;;;;;;5065864;28;20001;-72
2023/09/29 02:56:41;;;;;;;;;;;17.60;85.20;;;;;;5066957;28;19982;-70
2023/09/29 02:59:08;;;;;;;;;;;17.60;85.30;;;;;;5064579;28;19975;-71
2023/09/29 03:01:34;;;;;;;;;;;17.60;85.30;;;;;;5065390;28;19995;-69
2023/09/29 03:04:01;;;;;;;;;;;17.60;85.30;;;;;;5066507;28;19995;-69
2023/09/29 03:06:28;;;;;;;;;;;17.50;85.40;;;;;;5068611;28;19979;-70
2023/09/29 03:08:58;;;;;;;;;;;17.50;85.50;;;;;;5064512;28;19980;-71
2023/09/29 03:11:25;;;;;;;;;;;17.50;85.50;;;;;;5066631;28;19980;-72
2023/09/29 03:13:54;;;;;;;;;;;17.50;85.60;;;;;;5066055;28;20442;-70
2023/09/29 03:16:21;;;;;;;;;;;17.50;85.60;;;;;;5065296;28;20090;-70
2023/09/29 03:18:47;;;;;;;;;;;17.50;85.60;;;;;;5068235;28;19986;-70
2023/09/29 03:21:14;;;;;;;;;;;17.50;85.60;;;;;;5066008;28;19995;-70
2023/09/29 03:23:42;;;;;;;;;;;17.50;85.70;;;;;;5062674;28;20044;-70
2023/09/29 03:26:10;;;;;;;;;;;17.40;85.70;;;;;;5065647;28;20070;-69
2023/09/29 03:28:37;;;;;;;;;;;17.50;85.80;;;;;;5065045;28;19979;-70
2023/09/29 03:31:07;;;;;;;;;;;17.40;85.80;;;;;;5064931;28;19995;-70
2023/09/29 03:33:33;;;;;;;;;;;17.40;85.90;;;;;;5065441;28;20041;-71
2023/09/29 03:36:00;;;;;;;;;;;17.40;85.90;;;;;;5069998;28;19979;-70
2023/09/29 03:38:26;;;;;;;;;;;17.40;86.00;;;;;;5064354;28;19986;-70
2023/09/29 03:40:53;;;;;;;;;;;17.40;86.00;;;;;;5062093;28;20010;-72
2023/09/29 03:43:22;;;;;;;;;;;17.40;86.10;;;;;;5065948;28;19988;-70
2023/09/29 03:45:49;;;;;;;;;;;17.40;86.10;;;;;;5068341;28;19999;-69
2023/09/29 03:48:16;;;;;;;;;;;17.40;86.20;;;;;;5066246;28;19979;-70
2023/09/29 03:50:43;;;;;;;;;;;17.40;86.20;;;;;;5066173;28;20048;-70
2023/09/29 03:53:10;;;;;;;;;;;17.40;86.30;;;;;;5061493;28;19976;-69
2023/09/29 03:55:36;;;;;;;;;;;17.40;86.30;;;;;;5064947;28;19995;-71
2023/09/29 03:58:03;;;;;;;;;;;17.40;86.30;;;;;;5064348;28;19991;-70
2023/09/29 04:00:31;;;;;;;;;;;17.30;86.30;;;;;;5062981;28;20378;-69
2023/09/29 04:02:57;;;;;;;;;;;17.30;86.30;;;;;;5065716;28;20394;-70
2023/09/29 04:05:24;;;;;;;;;;;17.40;86.40;;;;;;5065609;28;19995;-70
2023/09/29 04:07:50;;;;;;;;;;;17.30;86.40;;;;;;5064934;28;19979;-70
2023/09/29 04:10:17;;;;;;;;;;;17.30;86.40;;;;;;5064920;28;19987;-70
2023/09/29 04:12:46;;;;;;;;;;;17.30;86.50;;;;;;5067892;28;19994;-69
2023/09/29 04:15:12;;;;;;;;;;;17.40;86.60;;;;;;5062709;28;20005;-72
2023/09/29 04:17:40;;;;;;;;;;;17.30;86.60;;;;;;5064938;28;19980;-70
2023/09/29 04:20:08;;;;;;;;;;;17.30;86.60;;;;;;5064797;28;20022;-70
2023/09/29 04:22:34;;;;;;;;;;;17.30;86.70;;;;;;5064597;28;19976;-70
2023/09/29 04:25:01;;;;;;;;;;;17.30;86.60;;;;;;5065403;28;19995;-71
2023/09/29 04:27:28;;;;;;;;;;;17.30;86.70;;;;;;5058815;28;19983;-70
2023/09/29 04:29:55;;;;;;;;;;;17.30;86.70;;;;;;5062430;28;20015;-70
2023/09/29 04:32:21;;;;;;;;;;;17.30;86.70;;;;;;5063841;28;20005;-70
2023/09/29 04:34:49;;;;;;;;;;;17.30;86.70;;;;;;5064835;28;19997;-70
2023/09/29 04:37:16;;;;;;;;;;;17.30;86.70;;;;;;5064970;28;19975;-71
2023/09/29 04:39:42;;;;;;;;;;;17.30;86.80;;;;;;5068875;28;19975;-70
2023/09/29 04:42:09;;;;;;;;;;;17.30;86.90;;;;;;5064596;28;19995;-71
2023/09/29 04:44:37;;;;;;;;;;;17.20;86.80;;;;;;5061229;28;19991;-72
2023/09/29 04:47:04;;;;;;;;;;;17.30;86.90;;;;;;5064617;28;20065;-71
2023/09/29 04:49:30;;;;;;;;;;;17.30;87.00;;;;;;5064115;28;20451;-70
2023/09/29 04:51:58;;;;;;;;;;;17.30;87.00;;;;;;5065153;28;20445;-69
2023/09/29 04:54:25;;;;;;;;;;;17.20;86.90;;;;;;5062726;28;20002;-71
2023/09/29 04:56:52;;;;;;;;;;;17.30;87.00;;;;;;5064072;28;19984;-70
2023/09/29 04:59:19;;;;;;;;;;;17.30;87.10;;;;;;5064417;28;20723;-70
2023/09/29 05:01:45;;;;;;;;;;;17.30;87.10;;;;;;5061940;28;19995;-70
2023/09/29 05:04:12;;;;;;;;;;;17.30;87.10;;;;;;5064782;28;20378;-69
2023/09/29 05:06:38;;;;;;;;;;;17.20;87.00;;;;;;5063107;28;20458;-71
2023/09/29 05:09:07;;;;;;;;;;;17.20;87.00;;;;;;5062681;28;19980;-70
2023/09/29 05:11:33;;;;;;;;;;;17.20;87.10;;;;;;5065319;28;20454;-70
2023/09/29 05:14:00;;;;;;;;;;;17.20;87.10;;;;;;5063339;28;20010;-69
2023/09/29 05:16:26;;;;;;;;;;;17.20;87.80;;;;;;5060667;28;20154;-70
2023/09/29 05:18:54;;;;;;;;;;;17.20;87.10;;;;;;5063071;28;19979;-69
2023/09/29 05:21:22;;;;;;;;;;;17.20;87.20;;;;;;5063769;28;20076;-70
2023/09/29 05:23:49;;;;;;;;;;;17.20;87.30;;;;;;5062611;28;20089;-69
2023/09/29 05:26:17;;;;;;;;;;;17.20;87.20;;;;;;5068022;28;20455;-70
2023/09/29 05:28:43;;;;;;;;;;;17.20;87.20;;;;;;5063956;28;20514;-70
2023/09/29 05:31:10;;;;;;;;;;;17.20;87.20;;;;;;5065361;28;20004;-71
2023/09/29 05:33:36;;;;;;;;;;;17.20;87.20;;;;;;5063824;28;20091;-71
2023/09/29 05:36:04;;;;;;;;;;;17.20;87.20;;;;;;5064313;28;20409;-70
2023/09/29 05:38:30;;;;;;;;;;;17.20;87.20;;;;;;5063493;28;19986;-72
2023/09/29 05:40:57;;;;;;;;;;;17.20;87.20;;;;;;5065714;28;19998;-71
2023/09/29 05:43:26;;;;;;;;;;;17.20;87.30;;;;;;5063794;28;19980;-70
2023/09/29 05:45:52;;;;;;;;;;;17.10;87.20;;;;;;5058696;28;20070;-70
2023/09/29 05:48:19;;;;;;;;;;;17.10;87.20;;;;;;5063546;28;20550;-70
2023/09/29 05:50:45;;;;;;;;;;;17.10;87.20;;;;;;5063878;28;19983;-72
2023/09/29 05:53:12;;;;;;;;;;;17.10;87.30;;;;;;5062267;28;19983;-69
2023/09/29 05:55:39;;;;;;;;;;;17.10;87.30;;;;;;5063717;28;20003;-70
2023/09/29 05:58:05;;;;;;;;;;;17.10;87.30;;;;;;5062963;28;20101;-70
2023/09/29 06:00:34;;;;;;;;;;;17.10;87.30;;;;;;5060475;28;20237;-72
2023/09/29 06:03:00;;;;;;;;;;;17.10;87.40;;;;;;5064749;28;20006;-71
2023/09/29 06:05:28;;;;;;;;;;;17.10;87.30;;;;;;5065021;28;19992;-69
2023/09/29 06:07:55;;;;;;;;;;;17.10;87.40;;;;;;5064971;28;20010;-70
2023/09/29 06:10:22;;;;;;;;;;;17.10;87.40;;;;;;5064835;28;20458;-72
2023/09/29 06:12:49;;;;;;;;;;;17.10;87.40;;;;;;5066968;28;20987;-69
2023/09/29 06:15:15;;;;;;;;;;;17.10;87.40;;;;;;5068201;28;20003;-71
2023/09/29 06:17:43;;;;;;;;;;;17.10;87.40;;;;;;5067342;28;20047;-70
2023/09/29 06:20:10;;;;;;;;;;;17.10;87.40;;;;;;5067539;28;20362;-70
2023/09/29 06:22:36;;;;;;;;;;;17.10;87.40;;;;;;5066632;28;20738;-69
2023/09/29 06:25:03;;;;;;;;;;;17.10;87.50;;;;;;5062827;28;20002;-72
2023/09/29 06:27:30;;;;;;;;;;;17.10;87.50;;;;;;5066295;28;19982;-69
2023/09/29 06:29:56;;;;;;;;;;;17.10;88.20;;;;;;5060535;28;19986;-70
2023/09/29 06:32:23;;;;;;;;;;;17.10;87.50;;;;;;5064055;28;20004;-69
2023/09/29 06:34:51;;;;;;;;;;;17.10;87.50;;;;;;5067964;28;19995;-69
2023/09/29 06:37:18;;;;;;;;;;;17.10;87.50;;;;;;5063996;28;19984;-71
2023/09/29 06:39:45;;;;;;;;;;;17.10;87.50;;;;;;5065339;28;19975;-69
2023/09/29 06:42:11;;;;;;;;;;;17.10;87.50;;;;;;5066719;28;19998;-70
2023/09/29 06:44:38;;;;;;;;;;;17.10;87.50;;;;;;5065813;28;20010;-70
2023/09/29 06:47:04;;;;;;;;;;;17.10;88.20;;;;;;5066601;28;19998;-69
2023/09/29 06:49:31;;;;;;;;;;;17.10;88.20;;;;;;5065731;28;19983;-71
2023/09/29 06:51:59;;;;;;;;;;;17.10;87.40;;;;;;5066719;28;19976;-69
2023/09/29 06:54:25;;;;;;;;;;;17.10;87.50;;;;;;5064568;28;19999;-71
2023/09/29 06:56:52;;;;;;;;;;;17.10;87.50;;;;;;5066194;28;19987;-69
2023/09/29 06:59:18;;;;;;;;;;;17.10;87.50;;;;;;5065180;28;19980;-71
2023/09/29 07:01:46;;;;;;;;;;;17.10;87.50;;;;;;5064012;28;19995;-69
2023/09/29 07:04:12;;;;;;;;;;;17.20;87.60;;;;;;5065283;28;20030;-69
2023/09/29 07:06:40;;;;;;;;;;;17.10;87.50;;;;;;5069991;28;19980;-71
2023/09/29 07:09:09;;;;;;;;;;;17.10;87.40;;;;;;5064151;28;20014;-70
2023/09/29 07:11:39;;;;;;;;;;;17.10;87.50;;;;;;5066192;28;19975;-69
2023/09/29 07:14:06;;;;;;;;;;;17.20;87.60;;;;;;5065503;28;20001;-70
2023/09/29 07:16:33;;;;;;;;;;;17.10;87.50;;;;;;5064312;28;20370;-70
2023/09/29 07:18:59;;;;;;;;;;;17.20;87.60;;;;;;5066850;28;20030;-70
2023/09/29 07:21:26;;;;;;;;;;;17.20;87.60;;;;;;5063068;28;19991;-71
2023/09/29 07:23:52;;;;;;;;;;;17.10;87.50;;;;;;5064195;28;19995;-71
2023/09/29 07:26:20;;;;;;;;;;;17.20;87.70;;;;;;5065778;28;20037;-70
2023/09/29 07:28:47;;;;;;;;;;;17.20;87.70;;;;;;5065746;28;19979;-72
2023/09/29 07:31:13;;;;;;;;;;;17.20;87.60;;;;;;5062745;28;19992;-69
2023/09/29 07:33:40;;;;;;;;;;;17.20;87.50;;;;;;5069931;28;20743;-71
2023/09/29 07:36:07;;;;;;;;;;;17.20;87.50;;;;;;5066364;28;19975;-70
2023/09/29 07:38:33;;;;;;;;;;;17.20;87.60;;;;;;5064735;28;20013;-70
2023/09/29 07:41:02;;;;;;;;;;;17.20;87.60;;;;;;5065830;28;20015;-70
2023/09/29 07:43:30;;;;;;;;;;;17.30;87.60;;;;;;5065248;28;19979;-70
2023/09/29 07:45:57;;;;;;;;;;;17.20;87.50;;;;;;5063685;28;20549;-71
2023/09/29 07:48:23;;;;;;;;;;;17.30;87.60;;;;;;5065392;28;19983;-70
2023/09/29 07:50:50;;;;;;;;;;;17.30;87.60;;;;;;5065690;28;19986;-71
2023/09/29 07:53:16;;;;;;;;;;;17.30;87.50;;;;;;5062922;28;20075;-70
2023/09/29 07:55:43;;;;;;;;;;;17.30;87.50;;;;;;5064140;28;19983;-71
2023/09/29 07:58:10;;;;;;;;;;;17.30;87.50;;;;;;5065073;28;19976;-70
2023/09/29 08:00:37;;;;;;;;;;;17.30;87.50;;;;;;5062724;28;20030;-68
2023/09/29 08:03:04;;;;;;;;;;;17.30;87.40;;;;;;5065294;28;19999;-70
2023/09/29 08:05:31;;;;;;;;;;;17.30;87.50;;;;;;5062927;28;19991;-70
2023/09/29 08:07:57;;;;;;;;;;;17.40;87.60;;;;;;5063063;28;20071;-71
2023/09/29 08:10:24;;;;;;;;;;;17.30;87.60;;;;;;5065007;28;19986;-71
2023/09/29 08:12:52;;;;;;;;;;;17.40;87.70;;;;;;5064605;28;19987;-70
2023/09/29 08:15:20;;;;;;;;;;;17.40;87.70;;;;;;5063678;28;20049;-73
2023/09/29 08:17:48;;;;;;;;;;;17.40;87.80;;;;;;5064308;28;19983;-70
2023/09/29 08:20:15;;;;;;;;;;;17.40;87.80;;;;;;5064797;28;19982;-70
2023/09/29 08:22:42;;;;;;;;;;;17.40;87.80;;;;;;5063621;28;20004;-70
2023/09/29 08:25:09;;;;;;;;;;;17.50;87.90;;;;;;5064830;28;19987;-70
2023/09/29 08:27:36;;;;;;;;;;;17.50;87.90;;;;;;5064872;28;19979;-72
2023/09/29 08:30:03;;;;;;;;;;;17.50;87.80;;;;;;5061641;28;20191;-70
2023/09/29 08:32:29;;;;;;;;;;;17.50;87.80;;;;;;5061999;28;19992;-70
2023/09/29 08:34:58;;;;;;;;;;;17.50;87.80;;;;;;5064042;28;19995;-70
2023/09/29 08:37:24;;;;;;;;;;;17.50;87.80;;;;;;5063306;28;20001;-70
2023/09/29 08:39:53;;;;;;;;;;;17.60;88.70;;;;;;5064547;28;19986;-70
2023/09/29 08:42:22;;;;;;;;;;;17.60;87.90;;;;;;5064115;28;19992;-70
2023/09/29 08:44:49;;;;;;;;;;;17.60;87.70;;;;;;5063190;28;19999;-70
2023/09/29 08:47:19;;;;;;;;;;;17.70;87.60;;;;;;5062098;28;20006;-70
2023/09/29 08:49:47;;;;;;;;;;;17.70;87.50;;;;;;5064424;28;19975;-72
2023/09/29 08:52:16;;;;;;;;;;;17.70;87.40;;;;;;5067163;28;19971;-70
2023/09/29 08:54:43;;;;;;;;;;;17.80;87.30;;;;;;5065888;28;19999;-70
2023/09/29 08:57:10;;;;;;;;;;;17.80;87.10;;;;;;5064433;28;19979;-70
2023/09/29 08:59:38;;;;;;;;;;;17.80;87.00;;;;;;5060655;28;19971;-71
2023/09/29 09:02:05;;;;;;;;;;;17.80;86.90;;;;;;5064055;28;19999;-70
2023/09/29 09:04:31;;;;;;;;;;;17.90;86.80;;;;;;5063343;28;19991;-69
2023/09/29 09:06:58;;;;;;;;;;;17.90;86.60;;;;;;5066546;28;19975;-70
2023/09/29 09:09:26;;;;;;;;;;;18.00;86.60;;;;;;5061524;28;19975;-70
2023/09/29 09:11:54;;;;;;;;;;;18.00;86.30;;;;;;5066177;28;20372;-71
2023/09/29 09:14:20;;;;;;;;;;;18.10;86.30;;;;;;5061749;28;19999;-70
2023/09/29 09:16:47;;;;;;;;;;;18.10;86.10;;;;;;5063497;28;19991;-70
2023/09/29 09:19:14;;;;;;;;;;;18.20;85.90;;;;;;5063722;28;19975;-71
2023/09/29 09:21:41;;;;;;;;;;;18.30;85.70;;;;;;5062139;28;19991;-70
2023/09/29 09:24:17;;;;;;;;;;;18.30;85.60;;;;;;5063688;28;20003;-71
2023/09/29 09:26:46;;;;;;;;;;;18.50;85.50;;;;;;5065306;28;20403;-72
2023/09/29 09:29:15;;;;;;;;;;;18.50;85.20;;;;;;5058269;28;19983;-71
2023/09/29 09:34:45;;;;;;;;;;;18.60;84.60;;;;;;5055463;28;19986;-70
2023/09/29 09:37:12;;;;;;;;;;;18.70;84.50;;;;;;5063396;28;19980;-70
2023/09/29 09:39:42;;;;;;;;;;;18.80;84.40;;;;;;5063818;28;19980;-70
2023/09/29 09:42:11;;;;;;;;;;;18.90;83.90;;;;;;5063287;28;19993;-70
2023/09/29 09:44:38;;;;;;;;;;;18.90;83.90;;;;;;5064018;28;19992;-68
2023/09/29 09:47:10;;;;;;;;;;;19.00;83.80;;;;;;5066933;28;20039;-69
2023/09/29 09:49:41;;;;;;;;;;;19.00;83.50;;;;;;5066567;28;19975;-69
2023/09/29 09:52:09;;;;;;;;;;;19.10;83.10;;;;;;5067136;28;20040;-69
2023/09/29 09:54:40;;;;;;;;;;;19.20;83.10;;;;;;5067633;28;20014;-69
2023/09/29 09:57:08;;;;;;;;;;;19.30;83.00;;;;;;5064654;28;19980;-69
2023/09/29 09:59:36;;;;;;;;;;;19.40;82.50;;;;;;5062823;28;19980;-70
2023/09/29 10:02:06;;;;;;;;;;;19.40;82.30;;;;;;5064869;28;20008;-70
2023/09/29 10:04:34;;;;;;;;;;;19.50;82.10;;;;;;5065758;28;20102;-69
2023/09/29 10:07:00;;;;;;;;;;;19.60;82.00;;;;;;5068930;28;19979;-69
2023/09/29 10:09:27;;;;;;;;;;;19.60;81.90;;;;;;5065412;28;19983;-69
2023/09/29 10:12:00;;;;;;;;;;;19.60;81.80;;;;;;5064059;28;19983;-69
2023/09/29 10:14:27;;;;;;;;;;;19.70;81.70;;;;;;5064639;28;19996;-69
2023/09/29 10:17:02;;;;;;;;;;;19.70;81.70;;;;;;5066755;28;19999;-68
2023/09/29 10:19:35;;;;;;;;;;;19.70;81.60;;;;;;5064306;28;20435;-69
2023/09/29 10:22:02;;;;;;;;;;;19.80;81.60;;;;;;5065988;28;19998;-69
2023/09/29 10:24:28;;;;;;;;;;;19.90;81.50;;;;;;5064752;28;20035;-69
2023/09/29 10:26:58;;;;;;;;;;;19.90;81.00;;;;;;5066511;28;20385;-69
2023/09/29 10:29:26;;;;;;;;;;;20.00;81.00;;;;;;5065272;28;19976;-69
2023/09/29 10:31:56;;;;;;;;;;;20.10;80.80;;;;;;5065766;28;20003;-70
2023/09/29 10:34:32;;;;;;;;;;;20.10;80.60;;;;;;5062924;28;20074;-69
2023/09/29 10:36:59;;;;;;;;;;;20.20;80.50;;;;;;5039672;28;20010;-68
2023/09/29 10:39:26;;;;;;;;;;;20.30;80.50;;;;;;5040625;28;20070;-68
2023/09/29 10:41:58;;;;;;;;;;;20.30;80.30;;;;;;5040481;28;19987;-68
2023/09/29 10:44:26;;;;;;;;;;;20.40;80.20;;;;;;5040460;28;19995;-69
2023/09/29 10:46:53;;;;;;;;;;;20.50;80.10;;;;;;5039696;28;20003;-69
2023/09/29 10:49:20;;;;;;;;;;;20.50;79.80;;;;;;5040495;28;19975;-69
2023/09/29 10:51:47;;;;;;;;;;;20.60;79.80;;;;;;5040425;28;19979;-69
2023/09/29 10:54:14;;;;;;;;;;;20.70;79.80;;;;;;5040241;28;20003;-68
2023/09/29 10:56:47;;;;;;;;;;;20.80;79.40;;;;;;5039094;28;20690;-69
2023/09/29 10:59:13;;;;;;;;;;;20.80;79.10;;;;;;5040296;28;19985;-68
2023/09/29 11:01:40;;;;;;;;;;;20.90;79.00;;;;;;5038932;28;19991;-69
2023/09/29 11:04:10;;;;;;;;;;;21.00;78.70;;;;;;5039922;28;20479;-69
2023/09/29 11:06:45;;;;;;;;;;;21.10;78.50;;;;;;5039217;28;20041;-69
2023/09/29 11:09:19;;;;;;;;;;;21.10;78.50;;;;;;5031177;28;21033;-76
2023/09/29 11:11:46;;;;;;;;;;;21.20;78.20;;;;;;5031282;28;19999;-75
2023/09/29 11:14:12;;;;;;;;;;;21.20;78.20;;;;;;5038690;28;20641;-74
2023/09/29 11:16:39;;;;;;;;;;;21.20;79.00;;;;;;5038371;28;19995;-75
2023/09/29 11:19:11;;;;;;;;;;;21.30;78.00;;;;;;5036590;28;20537;-73
2023/09/29 11:21:38;;;;;;;;;;;21.30;77.80;;;;;;5029674;28;19980;-74
2023/09/29 11:24:06;;;;;;;;;;;21.40;77.70;;;;;;5026930;28;20085;-73
2023/09/29 11:26:34;;;;;;;;;;;21.40;77.90;;;;;;5030871;28;19979;-74
2023/09/29 11:29:02;;;;;;;;;;;21.50;78.00;;;;;;5033760;28;19991;-75
2023/09/29 11:31:29;;;;;;;;;;;21.50;77.90;;;;;;5029222;28;20003;-73
2023/09/29 11:33:56;;;;;;;;;;;21.50;77.70;;;;;;5036603;28;19992;-75
2023/09/29 11:36:23;;;;;;;;;;;21.60;77.80;;;;;;5057005;28;19984;-75
2023/09/29 11:38:50;;;;;;;;;;;21.60;77.40;;;;;;5052966;28;19986;-75
2023/09/29 11:41:17;;;;;;;;;;;21.70;77.50;;;;;;5056770;28;20027;-75
2023/09/29 11:43:45;;;;;;;;;;;21.80;77.30;;;;;;5060585;28;20090;-74
2023/09/29 11:46:14;;;;;;;;;;;21.90;77.20;;;;;;5056738;28;19991;-74
2023/09/29 11:48:40;;;;;;;;;;;21.90;76.80;;;;;;5061361;28;19979;-75
2023/09/29 11:51:08;;;;;;;;;;;22.00;76.70;;;;;;5054730;28;19987;-75
2023/09/29 11:53:35;;;;;;;;;;;22.10;76.20;;;;;;5061225;28;19976;-77
2023/09/29 11:56:01;;;;;;;;;;;22.10;76.30;;;;;;5059414;28;19987;-76
2023/09/29 11:58:29;;;;;;;;;;;22.20;75.90;;;;;;5056166;28;19978;-76
2023/09/29 12:00:58;;;;;;;;;;;22.30;75.90;;;;;;5059396;28;19995;-75
2023/09/29 12:03:25;;;;;;;;;;;22.30;75.00;;;;;;5061668;28;20014;-76
2023/09/29 12:05:52;;;;;;;;;;;22.50;75.30;;;;;;5054337;28;20022;-76
2023/09/29 12:08:19;;;;;;;;;;;22.50;75.30;;;;;;5054201;28;19980;-76
2023/09/29 12:10:46;;;;;;;;;;;22.60;74.80;;;;;;5054900;28;19986;-73
2023/09/29 12:13:15;;;;;;;;;;;22.70;74.90;;;;;;5057920;28;20714;-75
2023/09/29 12:15:42;;;;;;;;;;;22.70;74.30;;;;;;5055854;28;20006;-78
2023/09/29 12:18:10;;;;;;;;;;;22.80;73.90;;;;;;5056575;28;20106;-76
2023/09/29 12:20:38;;;;;;;;;;;22.80;74.20;;;;;;5058519;28;19975;-77
2023/09/29 12:23:06;;;;;;;;;;;22.90;74.00;;;;;;5061956;28;20090;-76
2023/09/29 12:25:33;;;;;;;;;;;22.90;73.80;;;;;;5062671;28;19991;-77
2023/09/29 12:27:59;;;;;;;;;;;23.00;73.80;;;;;;5059467;28;20065;-77
2023/09/29 12:30:26;;;;;;;;;;;23.10;73.80;;;;;;5059412;28;20006;-77
2023/09/29 12:32:52;;;;;;;;;;;23.20;73.30;;;;;;5062727;28;19979;-77
2023/09/29 12:35:20;;;;;;;;;;;23.20;72.90;;;;;;5061732;28;20358;-77
2023/09/29 12:37:47;;;;;;;;;;;23.30;72.90;;;;;;5051368;28;20378;-77
2023/09/29 12:40:14;;;;;;;;;;;23.30;72.80;;;;;;5060108;28;19975;-77
2023/09/29 12:42:46;;;;;;;;;;;23.30;72.70;;;;;;5062171;28;20010;-77
2023/09/29 12:45:13;;;;;;;;;;;23.40;72.40;;;;;;5059642;28;20158;-77
2023/09/29 12:47:40;;;;;;;;;;;23.40;72.50;;;;;;5060665;28;19980;-77
2023/09/29 12:50:08;;;;;;;;;;;23.40;72.20;;;;;;5057564;28;19983;-76
2023/09/29 12:52:36;;;;;;;;;;;23.40;72.50;;;;;;5058168;28;20366;-75
2023/09/29 12:55:03;;;;;;;;;;;23.50;72.90;;;;;;5054411;28;19995;-75
2023/09/29 12:57:29;;;;;;;;;;;23.40;72.90;;;;;;5047938;28;19986;-75
2023/09/29 12:59:56;;;;;;;;;;;23.50;73.30;;;;;;5058938;28;19982;-76
2023/09/29 13:05:26;;;;;;;;;;;23.40;72.50;;;;;;5050562;28;20854;-74
2023/09/29 13:07:56;;;;;;;;;;;23.50;73.00;;;;;;5057483;28;19985;-75
2023/09/29 13:10:23;;;;;;;;;;;23.50;72.70;;;;;;4954382;28;98083;-74
2023/09/29 13:12:54;;;;;;;;;;;23.50;73.10;;;;;;5013102;28;19984;-76
2023/09/29 13:15:21;;;;;;;;;;;23.50;73.00;;;;;;5012586;28;19996;-74
2023/09/29 13:17:48;;;;;;;;;;;23.50;73.20;;;;;;5010209;28;20066;-76
2023/09/29 13:20:14;;;;;;;;;;;23.60;73.10;;;;;;5008710;28;20704;-75
2023/09/29 13:22:41;;;;;;;;;;;23.60;72.70;;;;;;5015109;28;22157;-75
2023/09/29 13:25:09;;;;;;;;;;;23.60;73.00;;;;;;5003058;28;20003;-75
2023/09/29 13:27:36;;;;;;;;;;;23.60;73.50;;;;;;4997956;28;19996;-75
2023/09/29 13:30:03;;;;;;;;;;;23.60;72.90;;;;;;5001558;28;19996;-75
2023/09/29 13:32:29;;;;;;;;;;;23.60;73.00;;;;;;5022341;28;20086;-75
2023/09/29 13:34:56;;;;;;;;;;;23.60;73.20;;;;;;5026307;28;20002;-76
2023/09/29 13:37:22;;;;;;;;;;;23.60;73.00;;;;;;5031937;28;20003;-78
2023/09/29 13:39:49;;;;;;;;;;;23.60;73.00;;;;;;5034186;28;20006;-77
2023/09/29 13:42:17;;;;;;;;;;;23.60;72.70;;;;;;5030619;28;20002;-74
2023/09/29 13:44:44;;;;;;;;;;;23.60;73.10;;;;;;5033258;28;20463;-75
2023/09/29 13:50:15;;;;;;;;;;;23.60;73.50;;;;;;4958913;28;19999;-79
2023/09/29 14:04:56;;;;;;;;;;;23.60;73.40;;;;;;4926568;28;20542;-81
2023/09/29 14:07:23;;;;;;;;;;;23.60;73.40;;;;;;4953794;28;20000;-81
2023/09/29 14:09:50;;;;;;;;;;;23.60;73.50;;;;;;4952002;28;20364;-78
2023/09/29 14:12:17;;;;;;;;;;;23.60;73.30;;;;;;4952200;28;20001;-78
2023/09/29 14:14:47;;;;;;;;;;;23.60;73.00;;;;;;4959383;28;19977;-81
2023/09/29 14:17:13;;;;;;;;;;;23.60;72.60;;;;;;4957698;28;19997;-78
2023/09/29 14:19:40;;;;;;;;;;;23.60;72.80;;;;;;4963634;28;20032;-80
2023/09/29 14:22:08;;;;;;;;;;;23.60;72.80;;;;;;4962730;28;19977;-80
2023/09/29 14:24:34;;;;;;;;;;;23.60;72.70;;;;;;4963217;28;20016;-82
2023/09/29 14:27:01;;;;;;;;;;;23.60;72.50;;;;;;4961306;28;19992;-79
2023/09/29 14:29:27;;;;;;;;;;;23.60;71.90;;;;;;4962001;28;19977;-78
2023/09/29 14:31:54;;;;;;;;;;;23.60;71.70;;;;;;4961468;28;20018;-79
2023/09/29 14:34:21;;;;;;;;;;;23.60;72.20;;;;;;4964701;28;19985;-80
2023/09/29 14:36:47;;;;;;;;;;;23.60;72.30;;;;;;4960454;28;19978;-79
2023/09/29 14:39:15;;;;;;;;;;;23.60;72.30;;;;;;4963195;28;19982;-81